Portada
METAR-TAF:

METAR-TAF

Aeroports :

Buriram, Tailàndia

latitud: 15-13-46N, longitud: 103-15-04E, altitud: 180 m

Observació

L'informe es va fer fa 34 minuts, a les 01:00 UTC
Vent 5 kt del Sud/Sud-Oest
Temperatura 29°C
Humitat 70%
Pressió 1011 hPa
Visibilitat: 7000 m
Escasses núvols a una alçada de 3000 ft

METAR: VTUO 300100Z 21005KT 7000 FEW030 29/23 Q1011 NOSIG

Hora: 08:34 (01:34 UTC)

Pronòstic

L'informe es va fer fa 2 hores i 34 minuts, a les 23:00 UTC
Pronòstic vàlid del 30 a les 00 UTC al 30 a les 24 UTC
Vent 5 kt del Sud
Visibilitat: 5000 m
Escasses núvols a una alçada de 3000 ft
boirina
Evolucionant progressivament
l' 30 a les 01 UTC al 30 a les 03 UTC
Visibilitat: 8000 m

TAF: VTUO 292300Z 3000/3024 19005KT 5000 BR FEW030 BECMG 3001/3003 8000 NSW

Observacions i pronòstics meteorològics de més de 4000 aeroports (METAR i TAF).

Les estacions disponibles són els punts grocs i vermells al mapa.

Posi el ratolí al punt desitjat per veure el nom de l'estació.

Feu clic per veure les observacions i els pronòstics meteorològics.

Per canviar el mapa: feu clic els botons verds amb una creu de color negre per apropar; al botó verd amb un guió per allunyar la imatge; o en les fletxes verdes per a mapes adjacents.


METAR-TAF: